sensor_id;sensor_type;location;lat;lon;timestamp;temperature;humidity
19908;DHT22;10116;53.112;7.356;2023-11-19T00:02:07;23.90;99.90
19908;DHT22;10116;53.112;7.356;2023-11-19T00:04:36;23.90;99.90
19908;DHT22;10116;53.112;7.356;2023-11-19T00:07:04;23.90;99.90
19908;DHT22;10116;53.112;7.356;2023-11-19T00:09:34;23.90;99.90
19908;DHT22;10116;53.112;7.356;2023-11-19T00:12:03;23.90;99.90
19908;DHT22;10116;53.112;7.356;2023-11-19T00:14:29;23.90;99.90
19908;DHT22;10116;53.112;7.356;2023-11-19T00:16:55;23.90;99.90
19908;DHT22;10116;53.112;7.356;2023-11-19T00:19:20;23.90;99.90
19908;DHT22;10116;53.112;7.356;2023-11-19T00:21:46;23.90;99.90
19908;DHT22;10116;53.112;7.356;2023-11-19T00:24:12;23.90;99.90
19908;DHT22;10116;53.112;7.356;2023-11-19T00:26:38;23.90;99.90
19908;DHT22;10116;53.112;7.356;2023-11-19T00:29:04;23.90;99.90
19908;DHT22;10116;53.112;7.356;2023-11-19T00:31:30;23.90;99.90
19908;DHT22;10116;53.112;7.356;2023-11-19T00:33:55;23.90;99.90
19908;DHT22;10116;53.112;7.356;2023-11-19T00:36:21;23.90;99.90
19908;DHT22;10116;53.112;7.356;2023-11-19T00:38:49;23.90;99.90
19908;DHT22;10116;53.112;7.356;2023-11-19T00:41:15;23.90;99.90
19908;DHT22;10116;53.112;7.356;2023-11-19T00:43:42;23.90;99.90
19908;DHT22;10116;53.112;7.356;2023-11-19T00:46:08;23.90;99.90
19908;DHT22;10116;53.112;7.356;2023-11-19T00:48:36;23.90;99.90
19908;DHT22;10116;53.112;7.356;2023-11-19T00:51:01;23.90;99.90
19908;DHT22;10116;53.112;7.356;2023-11-19T00:53:27;23.90;99.90
19908;DHT22;10116;53.112;7.356;2023-11-19T00:55:53;23.90;99.90
19908;DHT22;10116;53.112;7.356;2023-11-19T00:58:18;23.90;99.90
19908;DHT22;10116;53.112;7.356;2023-11-19T01:00:44;23.90;99.90
19908;DHT22;10116;53.112;7.356;2023-11-19T01:03:10;23.90;99.90
19908;DHT22;10116;53.112;7.356;2023-11-19T01:05:37;23.90;99.90
19908;DHT22;10116;53.112;7.356;2023-11-19T01:08:02;23.90;99.90
19908;DHT22;10116;53.112;7.356;2023-11-19T01:10:30;23.90;99.90
19908;DHT22;10116;53.112;7.356;2023-11-19T01:12:55;23.90;99.90
19908;DHT22;10116;53.112;7.356;2023-11-19T01:15:21;23.90;99.90
19908;DHT22;10116;53.112;7.356;2023-11-19T01:17:46;23.90;99.90
19908;DHT22;10116;53.112;7.356;2023-11-19T01:20:12;23.90;99.90
19908;DHT22;10116;53.112;7.356;2023-11-19T01:22:39;23.90;99.90
19908;DHT22;10116;53.112;7.356;2023-11-19T01:25:05;23.90;99.90
19908;DHT22;10116;53.112;7.356;2023-11-19T01:27:31;23.90;99.90
19908;DHT22;10116;53.112;7.356;2023-11-19T01:29:57;23.90;99.90
19908;DHT22;10116;53.112;7.356;2023-11-19T01:32:22;23.90;99.90
19908;DHT22;10116;53.112;7.356;2023-11-19T01:34:51;23.90;99.90
19908;DHT22;10116;53.112;7.356;2023-11-19T01:37:16;23.90;99.90
19908;DHT22;10116;53.112;7.356;2023-11-19T01:39:45;23.90;99.90
19908;DHT22;10116;53.112;7.356;2023-11-19T01:42:10;23.90;99.90
19908;DHT22;10116;53.112;7.356;2023-11-19T01:44:38;23.90;99.90
19908;DHT22;10116;53.112;7.356;2023-11-19T01:47:03;23.90;99.90
19908;DHT22;10116;53.112;7.356;2023-11-19T01:49:30;23.90;99.90
19908;DHT22;10116;53.112;7.356;2023-11-19T01:51:57;23.90;99.90
19908;DHT22;10116;53.112;7.356;2023-11-19T01:54:24;23.90;99.90
19908;DHT22;10116;53.112;7.356;2023-11-19T01:56:50;23.90;99.90
19908;DHT22;10116;53.112;7.356;2023-11-19T01:59:16;23.90;99.90
19908;DHT22;10116;53.112;7.356;2023-11-19T02:01:42;23.90;99.90
19908;DHT22;10116;53.112;7.356;2023-11-19T02:04:08;23.90;99.90
19908;DHT22;10116;53.112;7.356;2023-11-19T02:06:35;23.90;99.90
19908;DHT22;10116;53.112;7.356;2023-11-19T02:09:02;23.90;99.90
19908;DHT22;10116;53.112;7.356;2023-11-19T02:11:36;23.90;99.90
19908;DHT22;10116;53.112;7.356;2023-11-19T02:14:02;23.90;99.90
19908;DHT22;10116;53.112;7.356;2023-11-19T02:16:30;23.90;99.90
19908;DHT22;10116;53.112;7.356;2023-11-19T02:18:56;23.90;99.90
19908;DHT22;10116;53.112;7.356;2023-11-19T02:21:21;23.90;99.90
19908;DHT22;10116;53.112;7.356;2023-11-19T02:23:47;23.90;99.90
19908;DHT22;10116;53.112;7.356;2023-11-19T02:28:48;23.90;99.90
19908;DHT22;10116;53.112;7.356;2023-11-19T02:31:13;23.90;99.90
19908;DHT22;10116;53.112;7.356;2023-11-19T02:33:40;23.90;99.90
19908;DHT22;10116;53.112;7.356;2023-11-19T02:36:06;23.90;99.90
19908;DHT22;10116;53.112;7.356;2023-11-19T02:38:33;23.90;99.90
19908;DHT22;10116;53.112;7.356;2023-11-19T02:40:59;23.90;99.90
19908;DHT22;10116;53.112;7.356;2023-11-19T02:43:27;23.90;99.90
19908;DHT22;10116;53.112;7.356;2023-11-19T02:45:53;23.90;99.90
19908;DHT22;10116;53.112;7.356;2023-11-19T02:48:21;23.90;99.90
19908;DHT22;10116;53.112;7.356;2023-11-19T02:50:46;23.90;99.90
19908;DHT22;10116;53.112;7.356;2023-11-19T02:53:13;23.90;99.90
19908;DHT22;10116;53.112;7.356;2023-11-19T02:55:39;23.90;99.90
19908;DHT22;10116;53.112;7.356;2023-11-19T02:58:06;24.00;99.90
19908;DHT22;10116;53.112;7.356;2023-11-19T03:00:39;24.00;99.90
19908;DHT22;10116;53.112;7.356;2023-11-19T03:03:13;24.00;99.90
19908;DHT22;10116;53.112;7.356;2023-11-19T03:05:48;24.00;99.90
19908;DHT22;10116;53.112;7.356;2023-11-19T03:08:17;24.00;99.90
19908;DHT22;10116;53.112;7.356;2023-11-19T03:10:43;24.00;99.90
19908;DHT22;10116;53.112;7.356;2023-11-19T03:13:12;24.00;99.90
19908;DHT22;10116;53.112;7.356;2023-11-19T03:15:43;24.00;99.90
19908;DHT22;10116;53.112;7.356;2023-11-19T03:18:09;24.00;99.90
19908;DHT22;10116;53.112;7.356;2023-11-19T03:20:34;24.00;99.90
19908;DHT22;10116;53.112;7.356;2023-11-19T03:23:00;24.00;99.90
19908;DHT22;10116;53.112;7.356;2023-11-19T03:25:27;24.10;99.90
19908;DHT22;10116;53.112;7.356;2023-11-19T03:27:58;24.10;99.90
19908;DHT22;10116;53.112;7.356;2023-11-19T03:30:24;24.10;99.90
19908;DHT22;10116;53.112;7.356;2023-11-19T03:32:50;24.10;99.90
19908;DHT22;10116;53.112;7.356;2023-11-19T03:35:15;24.10;99.90
19908;DHT22;10116;53.112;7.356;2023-11-19T03:37:41;24.10;99.90
19908;DHT22;10116;53.112;7.356;2023-11-19T03:40:07;24.10;99.90
19908;DHT22;10116;53.112;7.356;2023-11-19T03:42:33;24.10;99.90
19908;DHT22;10116;53.112;7.356;2023-11-19T03:44:58;24.10;99.90
19908;DHT22;10116;53.112;7.356;2023-11-19T03:47:24;24.10;99.90
19908;DHT22;10116;53.112;7.356;2023-11-19T03:49:51;24.10;99.90
19908;DHT22;10116;53.112;7.356;2023-11-19T03:52:17;24.10;99.90
19908;DHT22;10116;53.112;7.356;2023-11-19T03:54:43;24.10;99.90
19908;DHT22;10116;53.112;7.356;2023-11-19T03:57:09;24.10;99.90
19908;DHT22;10116;53.112;7.356;2023-11-19T03:59:38;24.10;99.90
19908;DHT22;10116;53.112;7.356;2023-11-19T04:02:03;24.10;99.90
19908;DHT22;10116;53.112;7.356;2023-11-19T04:04:29;24.10;99.90
19908;DHT22;10116;53.112;7.356;2023-11-19T04:06:55;24.10;99.90
19908;DHT22;10116;53.112;7.356;2023-11-19T04:09:21;24.10;99.90
19908;DHT22;10116;53.112;7.356;2023-11-19T04:11:47;24.10;99.90
19908;DHT22;10116;53.112;7.356;2023-11-19T04:14:13;24.10;99.90
19908;DHT22;10116;53.112;7.356;2023-11-19T04:16:39;24.10;99.90
19908;DHT22;10116;53.112;7.356;2023-11-19T04:19:05;24.20;99.90
19908;DHT22;10116;53.112;7.356;2023-11-19T04:21:32;24.20;99.90
19908;DHT22;10116;53.112;7.356;2023-11-19T04:23:58;24.20;99.90
19908;DHT22;10116;53.112;7.356;2023-11-19T04:26:23;24.20;99.90
19908;DHT22;10116;53.112;7.356;2023-11-19T04:28:49;24.20;99.90
19908;DHT22;10116;53.112;7.356;2023-11-19T04:31:15;24.20;99.90
19908;DHT22;10116;53.112;7.356;2023-11-19T04:33:42;24.30;99.90
19908;DHT22;10116;53.112;7.356;2023-11-19T04:36:09;24.30;99.90
19908;DHT22;10116;53.112;7.356;2023-11-19T04:38:34;24.30;99.90
19908;DHT22;10116;53.112;7.356;2023-11-19T04:41:00;24.40;99.90
19908;DHT22;10116;53.112;7.356;2023-11-19T04:43:26;24.40;99.90
19908;DHT22;10116;53.112;7.356;2023-11-19T04:45:52;24.40;99.90
19908;DHT22;10116;53.112;7.356;2023-11-19T04:48:17;24.50;99.90
19908;DHT22;10116;53.112;7.356;2023-11-19T04:50:43;24.50;99.90
19908;DHT22;10116;53.112;7.356;2023-11-19T04:53:08;24.50;99.90
19908;DHT22;10116;53.112;7.356;2023-11-19T04:55:34;24.50;99.90
19908;DHT22;10116;53.112;7.356;2023-11-19T04:57:59;24.50;99.90
19908;DHT22;10116;53.112;7.356;2023-11-19T05:00:26;24.60;99.90
19908;DHT22;10116;53.112;7.356;2023-11-19T05:02:51;24.60;99.90
19908;DHT22;10116;53.112;7.356;2023-11-19T05:05:17;24.60;99.90
19908;DHT22;10116;53.112;7.356;2023-11-19T05:07:43;24.60;99.90
19908;DHT22;10116;53.112;7.356;2023-11-19T05:10:09;24.60;99.90
19908;DHT22;10116;53.112;7.356;2023-11-19T05:12:34;24.60;99.90
19908;DHT22;10116;53.112;7.356;2023-11-19T05:15:00;24.60;99.90
19908;DHT22;10116;53.112;7.356;2023-11-19T05:17:26;24.60;99.90
19908;DHT22;10116;53.112;7.356;2023-11-19T05:19:52;24.50;99.90
19908;DHT22;10116;53.112;7.356;2023-11-19T05:22:17;24.60;99.90
19908;DHT22;10116;53.112;7.356;2023-11-19T05:24:43;24.60;99.90
19908;DHT22;10116;53.112;7.356;2023-11-19T05:27:09;24.60;99.90
19908;DHT22;10116;53.112;7.356;2023-11-19T05:29:37;24.60;99.90
19908;DHT22;10116;53.112;7.356;2023-11-19T05:32:05;24.60;99.90
19908;DHT22;10116;53.112;7.356;2023-11-19T05:34:30;24.60;99.90
19908;DHT22;10116;53.112;7.356;2023-11-19T05:36:56;24.60;99.90
19908;DHT22;10116;53.112;7.356;2023-11-19T05:39:22;24.60;99.90
19908;DHT22;10116;53.112;7.356;2023-11-19T05:41:49;24.60;99.90
19908;DHT22;10116;53.112;7.356;2023-11-19T05:44:14;24.60;99.90
19908;DHT22;10116;53.112;7.356;2023-11-19T05:46:40;24.60;99.90
19908;DHT22;10116;53.112;7.356;2023-11-19T05:49:08;24.60;99.90
19908;DHT22;10116;53.112;7.356;2023-11-19T05:51:41;24.50;99.90
19908;DHT22;10116;53.112;7.356;2023-11-19T05:54:08;24.50;99.90
19908;DHT22;10116;53.112;7.356;2023-11-19T05:56:33;24.50;99.90
19908;DHT22;10116;53.112;7.356;2023-11-19T05:58:59;24.50;99.90
19908;DHT22;10116;53.112;7.356;2023-11-19T06:01:26;24.50;99.90
19908;DHT22;10116;53.112;7.356;2023-11-19T06:03:52;24.50;99.90
19908;DHT22;10116;53.112;7.356;2023-11-19T06:06:18;24.50;99.90
19908;DHT22;10116;53.112;7.356;2023-11-19T06:08:44;24.50;99.90
19908;DHT22;10116;53.112;7.356;2023-11-19T06:11:11;24.50;99.90
19908;DHT22;10116;53.112;7.356;2023-11-19T06:13:44;24.50;99.90
19908;DHT22;10116;53.112;7.356;2023-11-19T06:16:10;24.60;99.90
19908;DHT22;10116;53.112;7.356;2023-11-19T06:18:39;24.60;99.90
19908;DHT22;10116;53.112;7.356;2023-11-19T06:21:04;24.60;99.90
19908;DHT22;10116;53.112;7.356;2023-11-19T06:23:30;24.60;99.90
19908;DHT22;10116;53.112;7.356;2023-11-19T06:25:55;24.70;99.90
19908;DHT22;10116;53.112;7.356;2023-11-19T06:28:21;24.70;99.90
19908;DHT22;10116;53.112;7.356;2023-11-19T06:30:47;24.70;99.90
19908;DHT22;10116;53.112;7.356;2023-11-19T06:33:13;24.70;99.90
19908;DHT22;10116;53.112;7.356;2023-11-19T06:35:39;24.70;99.90
19908;DHT22;10116;53.112;7.356;2023-11-19T06:38:05;24.70;99.90
19908;DHT22;10116;53.112;7.356;2023-11-19T06:40:32;24.70;99.90
19908;DHT22;10116;53.112;7.356;2023-11-19T06:42:57;24.70;99.90
19908;DHT22;10116;53.112;7.356;2023-11-19T06:45:23;24.70;99.90
19908;DHT22;10116;53.112;7.356;2023-11-19T06:47:48;24.70;99.90
19908;DHT22;10116;53.112;7.356;2023-11-19T06:50:15;24.70;99.90
19908;DHT22;10116;53.112;7.356;2023-11-19T06:52:40;24.70;99.90
19908;DHT22;10116;53.112;7.356;2023-11-19T06:55:06;24.70;99.90
19908;DHT22;10116;53.112;7.356;2023-11-19T06:57:32;24.70;99.90
19908;DHT22;10116;53.112;7.356;2023-11-19T06:59:58;24.70;99.90
19908;DHT22;10116;53.112;7.356;2023-11-19T07:02:24;24.80;99.90
19908;DHT22;10116;53.112;7.356;2023-11-19T07:04:51;24.70;99.90
19908;DHT22;10116;53.112;7.356;2023-11-19T07:07:16;24.70;99.90
19908;DHT22;10116;53.112;7.356;2023-11-19T07:09:42;24.80;99.90
19908;DHT22;10116;53.112;7.356;2023-11-19T07:12:08;24.70;99.90
19908;DHT22;10116;53.112;7.356;2023-11-19T07:14:34;24.80;99.90
19908;DHT22;10116;53.112;7.356;2023-11-19T07:17:00;24.70;99.90
19908;DHT22;10116;53.112;7.356;2023-11-19T07:19:25;24.70;99.90
19908;DHT22;10116;53.112;7.356;2023-11-19T07:21:51;24.70;99.90
19908;DHT22;10116;53.112;7.356;2023-11-19T07:24:19;24.70;99.90
19908;DHT22;10116;53.112;7.356;2023-11-19T07:26:46;24.70;99.90
19908;DHT22;10116;53.112;7.356;2023-11-19T07:29:13;24.70;99.90
19908;DHT22;10116;53.112;7.356;2023-11-19T07:31:39;24.70;99.90
19908;DHT22;10116;53.112;7.356;2023-11-19T07:34:05;24.70;99.90
19908;DHT22;10116;53.112;7.356;2023-11-19T07:36:32;24.70;99.90
19908;DHT22;10116;53.112;7.356;2023-11-19T07:38:58;24.70;99.90
19908;DHT22;10116;53.112;7.356;2023-11-19T07:41:24;24.70;99.90
19908;DHT22;10116;53.112;7.356;2023-11-19T07:43:50;24.70;99.90
19908;DHT22;10116;53.112;7.356;2023-11-19T07:46:17;24.60;99.90
19908;DHT22;10116;53.112;7.356;2023-11-19T07:48:45;24.70;99.90
19908;DHT22;10116;53.112;7.356;2023-11-19T07:51:12;24.70;99.90
19908;DHT22;10116;53.112;7.356;2023-11-19T07:53:38;24.70;99.90
19908;DHT22;10116;53.112;7.356;2023-11-19T07:56:05;24.80;99.90
19908;DHT22;10116;53.112;7.356;2023-11-19T07:58:31;24.80;99.90
19908;DHT22;10116;53.112;7.356;2023-11-19T08:00:56;24.80;99.90
19908;DHT22;10116;53.112;7.356;2023-11-19T08:03:22;24.80;99.90
19908;DHT22;10116;53.112;7.356;2023-11-19T08:05:48;24.70;99.90
19908;DHT22;10116;53.112;7.356;2023-11-19T08:08:13;24.70;99.90
19908;DHT22;10116;53.112;7.356;2023-11-19T08:10:40;24.70;99.90
19908;DHT22;10116;53.112;7.356;2023-11-19T08:13:05;24.60;99.90
19908;DHT22;10116;53.112;7.356;2023-11-19T08:15:31;24.60;99.90
19908;DHT22;10116;53.112;7.356;2023-11-19T08:17:57;24.60;99.90
19908;DHT22;10116;53.112;7.356;2023-11-19T08:20:23;24.50;99.90
19908;DHT22;10116;53.112;7.356;2023-11-19T08:22:49;24.50;99.90
19908;DHT22;10116;53.112;7.356;2023-11-19T08:25:15;24.40;99.90
19908;DHT22;10116;53.112;7.356;2023-11-19T08:27:40;24.40;99.90
19908;DHT22;10116;53.112;7.356;2023-11-19T08:30:06;24.40;99.90
19908;DHT22;10116;53.112;7.356;2023-11-19T08:32:32;24.40;99.90
19908;DHT22;10116;53.112;7.356;2023-11-19T08:34:58;24.40;99.90
19908;DHT22;10116;53.112;7.356;2023-11-19T08:37:23;24.40;99.90
19908;DHT22;10116;53.112;7.356;2023-11-19T08:39:50;24.40;99.90
19908;DHT22;10116;53.112;7.356;2023-11-19T08:42:16;24.40;99.90
19908;DHT22;10116;53.112;7.356;2023-11-19T08:44:42;24.40;99.90
19908;DHT22;10116;53.112;7.356;2023-11-19T08:47:10;24.40;99.90
19908;DHT22;10116;53.112;7.356;2023-11-19T08:49:36;24.40;99.90
19908;DHT22;10116;53.112;7.356;2023-11-19T08:52:02;24.40;99.90
19908;DHT22;10116;53.112;7.356;2023-11-19T08:54:27;24.40;99.90
19908;DHT22;10116;53.112;7.356;2023-11-19T08:56:53;24.40;99.90
19908;DHT22;10116;53.112;7.356;2023-11-19T08:59:19;24.40;99.90
19908;DHT22;10116;53.112;7.356;2023-11-19T09:01:44;24.40;99.90
19908;DHT22;10116;53.112;7.356;2023-11-19T09:04:10;24.40;99.90
19908;DHT22;10116;53.112;7.356;2023-11-19T09:06:36;24.50;99.90
19908;DHT22;10116;53.112;7.356;2023-11-19T09:09:02;24.50;99.90
19908;DHT22;10116;53.112;7.356;2023-11-19T09:11:29;24.40;99.90
19908;DHT22;10116;53.112;7.356;2023-11-19T09:13:54;24.50;99.90
19908;DHT22;10116;53.112;7.356;2023-11-19T09:16:20;24.50;99.90
19908;DHT22;10116;53.112;7.356;2023-11-19T09:18:45;24.50;99.90
19908;DHT22;10116;53.112;7.356;2023-11-19T09:21:11;24.40;99.90
19908;DHT22;10116;53.112;7.356;2023-11-19T09:23:37;24.40;99.90
19908;DHT22;10116;53.112;7.356;2023-11-19T09:26:05;24.40;99.90
19908;DHT22;10116;53.112;7.356;2023-11-19T09:28:31;24.40;99.90
19908;DHT22;10116;53.112;7.356;2023-11-19T09:30:57;24.40;99.90
19908;DHT22;10116;53.112;7.356;2023-11-19T09:33:24;24.40;99.90
19908;DHT22;10116;53.112;7.356;2023-11-19T09:35:50;24.40;99.90
19908;DHT22;10116;53.112;7.356;2023-11-19T09:38:16;24.40;99.90
19908;DHT22;10116;53.112;7.356;2023-11-19T09:40:42;24.40;99.90
19908;DHT22;10116;53.112;7.356;2023-11-19T09:43:08;24.40;99.90
19908;DHT22;10116;53.112;7.356;2023-11-19T09:45:48;24.40;99.90
19908;DHT22;10116;53.112;7.356;2023-11-19T09:48:17;24.40;99.90
19908;DHT22;10116;53.112;7.356;2023-11-19T09:50:45;24.40;99.90
19908;DHT22;10116;53.112;7.356;2023-11-19T09:53:12;24.40;99.90
19908;DHT22;10116;53.112;7.356;2023-11-19T09:55:38;24.30;99.90
19908;DHT22;10116;53.112;7.356;2023-11-19T09:58:03;24.30;99.90
19908;DHT22;10116;53.112;7.356;2023-11-19T10:00:30;24.30;99.90
19908;DHT22;10116;53.112;7.356;2023-11-19T10:02:56;24.30;99.90
19908;DHT22;10116;53.112;7.356;2023-11-19T10:05:23;24.30;99.90
19908;DHT22;10116;53.112;7.356;2023-11-19T10:07:50;24.40;99.90
19908;DHT22;10116;53.112;7.356;2023-11-19T10:10:16;24.40;99.90
19908;DHT22;10116;53.112;7.356;2023-11-19T10:12:45;24.40;99.90
19908;DHT22;10116;53.112;7.356;2023-11-19T10:15:22;24.40;99.90
19908;DHT22;10116;53.112;7.356;2023-11-19T10:17:59;24.40;99.90
19908;DHT22;10116;53.112;7.356;2023-11-19T10:20:24;24.30;99.90
19908;DHT22;10116;53.112;7.356;2023-11-19T10:22:53;24.30;99.90
19908;DHT22;10116;53.112;7.356;2023-11-19T10:25:24;24.20;99.90
19908;DHT22;10116;53.112;7.356;2023-11-19T10:27:51;24.10;99.90
19908;DHT22;10116;53.112;7.356;2023-11-19T10:30:37;24.10;99.90
19908;DHT22;10116;53.112;7.356;2023-11-19T10:33:12;24.10;99.90
19908;DHT22;10116;53.112;7.356;2023-11-19T10:35:52;24.10;99.90
19908;DHT22;10116;53.112;7.356;2023-11-19T10:38:19;24.10;99.90
19908;DHT22;10116;53.112;7.356;2023-11-19T10:40:45;24.20;99.90
19908;DHT22;10116;53.112;7.356;2023-11-19T10:43:10;24.20;99.90
19908;DHT22;10116;53.112;7.356;2023-11-19T10:45:37;24.20;99.90
19908;DHT22;10116;53.112;7.356;2023-11-19T10:48:06;24.20;99.90
19908;DHT22;10116;53.112;7.356;2023-11-19T10:50:36;24.10;99.90
19908;DHT22;10116;53.112;7.356;2023-11-19T10:53:02;24.10;99.90
19908;DHT22;10116;53.112;7.356;2023-11-19T10:55:33;24.10;99.90
19908;DHT22;10116;53.112;7.356;2023-11-19T10:58:05;24.10;99.90
19908;DHT22;10116;53.112;7.356;2023-11-19T11:00:45;24.10;99.90
19908;DHT22;10116;53.112;7.356;2023-11-19T11:03:18;24.10;99.90
19908;DHT22;10116;53.112;7.356;2023-11-19T11:05:48;24.10;99.90
19908;DHT22;10116;53.112;7.356;2023-11-19T11:08:14;24.00;99.90
19908;DHT22;10116;53.112;7.356;2023-11-19T11:10:44;24.00;99.90
19908;DHT22;10116;53.112;7.356;2023-11-19T11:13:11;24.00;99.90
19908;DHT22;10116;53.112;7.356;2023-11-19T11:15:37;23.90;99.90
19908;DHT22;10116;53.112;7.356;2023-11-19T11:18:05;23.90;99.90
19908;DHT22;10116;53.112;7.356;2023-11-19T11:20:33;23.90;99.90
19908;DHT22;10116;53.112;7.356;2023-11-19T11:39:51;23.70;99.90
19908;DHT22;10116;53.112;7.356;2023-11-19T11:45:02;23.70;99.90
19908;DHT22;10116;53.112;7.356;2023-11-19T11:50:18;23.60;99.90
19908;DHT22;10116;53.112;7.356;2023-11-19T11:55:28;23.60;99.90
19908;DHT22;10116;53.112;7.356;2023-11-19T11:57:56;23.60;99.90
19908;DHT22;10116;53.112;7.356;2023-11-19T12:00:39;23.50;99.90
19908;DHT22;10116;53.112;7.356;2023-11-19T12:03:06;23.60;99.90
19908;DHT22;10116;53.112;7.356;2023-11-19T12:05:33;23.60;99.90
19908;DHT22;10116;53.112;7.356;2023-11-19T12:08:04;23.60;99.90
19908;DHT22;10116;53.112;7.356;2023-11-19T12:10:36;23.70;99.90
19908;DHT22;10116;53.112;7.356;2023-11-19T12:13:06;23.70;99.90
19908;DHT22;10116;53.112;7.356;2023-11-19T12:18:26;23.70;99.90
19908;DHT22;10116;53.112;7.356;2023-11-19T12:20:52;23.70;99.90
19908;DHT22;10116;53.112;7.356;2023-11-19T12:23:18;23.80;99.90
19908;DHT22;10116;53.112;7.356;2023-11-19T12:25:44;23.80;99.90
19908;DHT22;10116;53.112;7.356;2023-11-19T12:28:15;23.80;99.90
19908;DHT22;10116;53.112;7.356;2023-11-19T12:30:43;23.80;99.90
19908;DHT22;10116;53.112;7.356;2023-11-19T12:33:09;23.80;99.90
19908;DHT22;10116;53.112;7.356;2023-11-19T12:35:42;23.80;99.90
19908;DHT22;10116;53.112;7.356;2023-11-19T12:38:21;23.80;99.90
19908;DHT22;10116;53.112;7.356;2023-11-19T12:40:47;23.80;99.90
19908;DHT22;10116;53.112;7.356;2023-11-19T12:43:27;23.80;99.90
19908;DHT22;10116;53.112;7.356;2023-11-19T12:45:52;23.80;99.90
19908;DHT22;10116;53.112;7.356;2023-11-19T12:48:18;23.80;99.90
19908;DHT22;10116;53.112;7.356;2023-11-19T12:50:57;23.80;99.90
19908;DHT22;10116;53.112;7.356;2023-11-19T12:53:24;23.80;99.90
19908;DHT22;10116;53.112;7.356;2023-11-19T12:55:51;23.80;99.90
19908;DHT22;10116;53.112;7.356;2023-11-19T12:58:36;23.80;99.90
19908;DHT22;10116;53.112;7.356;2023-11-19T13:01:06;23.80;99.90
19908;DHT22;10116;53.112;7.356;2023-11-19T13:03:34;23.80;99.90
19908;DHT22;10116;53.112;7.356;2023-11-19T13:06:04;23.80;99.90
19908;DHT22;10116;53.112;7.356;2023-11-19T13:08:45;23.80;99.90
19908;DHT22;10116;53.112;7.356;2023-11-19T13:11:11;23.80;99.90
19908;DHT22;10116;53.112;7.356;2023-11-19T13:13:58;23.80;99.90
19908;DHT22;10116;53.112;7.356;2023-11-19T13:16:25;23.80;99.90
19908;DHT22;10116;53.112;7.356;2023-11-19T13:18:51;23.80;99.90
19908;DHT22;10116;53.112;7.356;2023-11-19T13:21:17;23.80;99.90
19908;DHT22;10116;53.112;7.356;2023-11-19T13:23:43;23.80;99.90
19908;DHT22;10116;53.112;7.356;2023-11-19T13:26:09;23.80;99.90
19908;DHT22;10116;53.112;7.356;2023-11-19T13:28:35;23.80;99.90
19908;DHT22;10116;53.112;7.356;2023-11-19T13:31:00;23.80;99.90
19908;DHT22;10116;53.112;7.356;2023-11-19T13:33:26;23.80;99.90
19908;DHT22;10116;53.112;7.356;2023-11-19T13:35:52;23.80;99.90
19908;DHT22;10116;53.112;7.356;2023-11-19T13:38:18;23.80;99.90
19908;DHT22;10116;53.112;7.356;2023-11-19T13:40:44;23.80;99.90
19908;DHT22;10116;53.112;7.356;2023-11-19T13:43:09;23.80;99.90
19908;DHT22;10116;53.112;7.356;2023-11-19T13:45:35;23.80;99.90
19908;DHT22;10116;53.112;7.356;2023-11-19T13:48:00;23.90;99.90
19908;DHT22;10116;53.112;7.356;2023-11-19T13:50:26;23.90;99.90
19908;DHT22;10116;53.112;7.356;2023-11-19T13:52:54;23.90;99.90
19908;DHT22;10116;53.112;7.356;2023-11-19T13:55:19;23.90;99.90
19908;DHT22;10116;53.112;7.356;2023-11-19T13:57:45;23.90;99.90
19908;DHT22;10116;53.112;7.356;2023-11-19T14:00:12;23.90;99.90
19908;DHT22;10116;53.112;7.356;2023-11-19T14:02:42;23.90;99.90
19908;DHT22;10116;53.112;7.356;2023-11-19T14:05:09;24.00;99.90
19908;DHT22;10116;53.112;7.356;2023-11-19T14:07:36;24.00;99.90
19908;DHT22;10116;53.112;7.356;2023-11-19T14:10:02;24.00;99.90
19908;DHT22;10116;53.112;7.356;2023-11-19T14:12:28;24.00;99.90
19908;DHT22;10116;53.112;7.356;2023-11-19T14:14:54;24.00;99.90
19908;DHT22;10116;53.112;7.356;2023-11-19T14:17:20;24.00;99.90
19908;DHT22;10116;53.112;7.356;2023-11-19T14:19:45;24.00;99.90
19908;DHT22;10116;53.112;7.356;2023-11-19T14:22:11;23.90;99.90
19908;DHT22;10116;53.112;7.356;2023-11-19T14:24:37;23.90;99.90
19908;DHT22;10116;53.112;7.356;2023-11-19T14:27:03;23.90;99.90
19908;DHT22;10116;53.112;7.356;2023-11-19T14:29:29;23.90;99.90
19908;DHT22;10116;53.112;7.356;2023-11-19T14:31:57;23.90;99.90
19908;DHT22;10116;53.112;7.356;2023-11-19T14:34:24;23.90;99.90
19908;DHT22;10116;53.112;7.356;2023-11-19T14:36:51;23.90;99.90
19908;DHT22;10116;53.112;7.356;2023-11-19T14:39:17;23.90;99.90
19908;DHT22;10116;53.112;7.356;2023-11-19T14:41:43;23.90;99.90
19908;DHT22;10116;53.112;7.356;2023-11-19T14:44:10;23.90;99.90
19908;DHT22;10116;53.112;7.356;2023-11-19T14:46:35;23.90;99.90
19908;DHT22;10116;53.112;7.356;2023-11-19T14:49:01;23.90;99.90
19908;DHT22;10116;53.112;7.356;2023-11-19T14:51:27;23.90;99.90
19908;DHT22;10116;53.112;7.356;2023-11-19T14:53:52;23.90;99.90
19908;DHT22;10116;53.112;7.356;2023-11-19T14:56:18;23.90;99.90
19908;DHT22;10116;53.112;7.356;2023-11-19T14:58:43;23.90;99.90
19908;DHT22;10116;53.112;7.356;2023-11-19T15:01:13;23.90;99.90
19908;DHT22;10116;53.112;7.356;2023-11-19T15:03:39;23.80;99.90
19908;DHT22;10116;53.112;7.356;2023-11-19T15:06:05;23.80;99.90
19908;DHT22;10116;53.112;7.356;2023-11-19T15:08:32;23.80;99.90
19908;DHT22;10116;53.112;7.356;2023-11-19T15:10:58;23.80;99.90
19908;DHT22;10116;53.112;7.356;2023-11-19T15:13:24;23.80;99.90
19908;DHT22;10116;53.112;7.356;2023-11-19T15:15:50;23.80;99.90
19908;DHT22;10116;53.112;7.356;2023-11-19T15:18:18;23.90;99.90
19908;DHT22;10116;53.112;7.356;2023-11-19T15:20:44;23.90;99.90
19908;DHT22;10116;53.112;7.356;2023-11-19T15:23:13;23.90;99.90
19908;DHT22;10116;53.112;7.356;2023-11-19T15:25:38;24.00;99.90
19908;DHT22;10116;53.112;7.356;2023-11-19T15:28:04;24.00;99.90
19908;DHT22;10116;53.112;7.356;2023-11-19T15:30:30;24.00;99.90
19908;DHT22;10116;53.112;7.356;2023-11-19T15:32:55;24.00;99.90
19908;DHT22;10116;53.112;7.356;2023-11-19T15:35:21;24.00;99.90
19908;DHT22;10116;53.112;7.356;2023-11-19T15:37:47;24.00;99.90
19908;DHT22;10116;53.112;7.356;2023-11-19T15:40:12;24.00;99.90
19908;DHT22;10116;53.112;7.356;2023-11-19T15:42:39;24.00;99.90
19908;DHT22;10116;53.112;7.356;2023-11-19T15:45:06;24.00;99.90
19908;DHT22;10116;53.112;7.356;2023-11-19T15:47:35;24.00;99.90
19908;DHT22;10116;53.112;7.356;2023-11-19T15:50:01;24.00;99.90
19908;DHT22;10116;53.112;7.356;2023-11-19T15:52:27;24.00;99.90
19908;DHT22;10116;53.112;7.356;2023-11-19T15:54:53;24.00;99.90
19908;DHT22;10116;53.112;7.356;2023-11-19T15:57:18;24.00;99.90
19908;DHT22;10116;53.112;7.356;2023-11-19T15:59:44;24.00;99.90